sensor_id;sensor_type;location;lat;lon;timestamp;P1;durP1;ratioP1;P2;durP2;ratioP2
6372;SDS011;3219;51.362;7.074;2022-11-21T00:00:39;28.30;;;23.02;;
6372;SDS011;3219;51.362;7.074;2022-11-21T00:03:08;28.95;;;22.73;;
6372;SDS011;3219;51.362;7.074;2022-11-21T00:05:39;29.52;;;23.05;;
6372;SDS011;3219;51.362;7.074;2022-11-21T00:08:07;28.73;;;21.85;;
6372;SDS011;3219;51.362;7.074;2022-11-21T00:10:35;30.67;;;22.25;;
6372;SDS011;3219;51.362;7.074;2022-11-21T00:13:03;37.72;;;26.63;;
6372;SDS011;3219;51.362;7.074;2022-11-21T00:15:32;38.75;;;26.92;;
6372;SDS011;3219;51.362;7.074;2022-11-21T00:18:00;39.22;;;27.27;;
6372;SDS011;3219;51.362;7.074;2022-11-21T00:20:28;38.05;;;26.25;;
6372;SDS011;3219;51.362;7.074;2022-11-21T00:22:57;36.53;;;26.05;;
6372;SDS011;3219;51.362;7.074;2022-11-21T00:25:25;34.45;;;25.08;;
6372;SDS011;3219;51.362;7.074;2022-11-21T00:27:54;32.63;;;24.85;;
6372;SDS011;3219;51.362;7.074;2022-11-21T00:30:22;31.60;;;23.92;;
6372;SDS011;3219;51.362;7.074;2022-11-21T00:32:50;30.02;;;24.27;;
6372;SDS011;3219;51.362;7.074;2022-11-21T00:35:17;25.67;;;21.90;;
6372;SDS011;3219;51.362;7.074;2022-11-21T00:37:45;27.33;;;22.80;;
6372;SDS011;3219;51.362;7.074;2022-11-21T00:40:16;28.60;;;23.92;;
6372;SDS011;3219;51.362;7.074;2022-11-21T00:42:44;25.85;;;22.27;;
6372;SDS011;3219;51.362;7.074;2022-11-21T00:45:12;26.42;;;23.17;;
6372;SDS011;3219;51.362;7.074;2022-11-21T00:47:39;26.80;;;22.38;;
6372;SDS011;3219;51.362;7.074;2022-11-21T00:50:08;27.33;;;22.88;;
6372;SDS011;3219;51.362;7.074;2022-11-21T00:52:36;27.92;;;24.17;;
6372;SDS011;3219;51.362;7.074;2022-11-21T00:55:04;25.77;;;21.42;;
6372;SDS011;3219;51.362;7.074;2022-11-21T00:57:33;25.42;;;22.42;;
6372;SDS011;3219;51.362;7.074;2022-11-21T01:00:02;26.42;;;22.02;;
6372;SDS011;3219;51.362;7.074;2022-11-21T01:02:30;27.80;;;23.00;;
6372;SDS011;3219;51.362;7.074;2022-11-21T01:04:58;24.35;;;21.20;;
6372;SDS011;3219;51.362;7.074;2022-11-21T01:07:26;27.80;;;22.15;;
6372;SDS011;3219;51.362;7.074;2022-11-21T01:09:54;26.05;;;21.95;;
6372;SDS011;3219;51.362;7.074;2022-11-21T01:12:22;23.23;;;20.02;;
6372;SDS011;3219;51.362;7.074;2022-11-21T01:14:51;27.45;;;22.73;;
6372;SDS011;3219;51.362;7.074;2022-11-21T01:17:19;26.30;;;22.25;;
6372;SDS011;3219;51.362;7.074;2022-11-21T01:19:47;24.75;;;21.20;;
6372;SDS011;3219;51.362;7.074;2022-11-21T01:22:15;27.15;;;23.10;;
6372;SDS011;3219;51.362;7.074;2022-11-21T01:24:43;24.52;;;21.40;;
6372;SDS011;3219;51.362;7.074;2022-11-21T01:27:11;27.38;;;22.25;;
6372;SDS011;3219;51.362;7.074;2022-11-21T01:29:39;29.83;;;23.98;;
6372;SDS011;3219;51.362;7.074;2022-11-21T01:32:08;27.50;;;23.40;;
6372;SDS011;3219;51.362;7.074;2022-11-21T01:34:36;27.83;;;22.90;;
6372;SDS011;3219;51.362;7.074;2022-11-21T01:37:04;29.35;;;23.42;;
6372;SDS011;3219;51.362;7.074;2022-11-21T01:39:32;26.55;;;21.65;;
6372;SDS011;3219;51.362;7.074;2022-11-21T01:41:59;28.67;;;23.80;;
6372;SDS011;3219;51.362;7.074;2022-11-21T01:47:11;31.15;;;25.42;;
6372;SDS011;3219;51.362;7.074;2022-11-21T01:49:39;29.73;;;24.88;;
6372;SDS011;3219;51.362;7.074;2022-11-21T01:52:08;32.00;;;25.25;;
6372;SDS011;3219;51.362;7.074;2022-11-21T01:54:39;32.85;;;26.15;;
6372;SDS011;3219;51.362;7.074;2022-11-21T01:57:09;31.73;;;26.08;;
6372;SDS011;3219;51.362;7.074;2022-11-21T01:59:39;32.47;;;25.75;;
6372;SDS011;3219;51.362;7.074;2022-11-21T02:02:09;34.80;;;25.95;;
6372;SDS011;3219;51.362;7.074;2022-11-21T02:04:39;34.30;;;26.23;;
6372;SDS011;3219;51.362;7.074;2022-11-21T02:07:08;34.13;;;26.08;;
6372;SDS011;3219;51.362;7.074;2022-11-21T02:09:39;33.60;;;27.17;;
6372;SDS011;3219;51.362;7.074;2022-11-21T02:12:09;37.05;;;28.27;;
6372;SDS011;3219;51.362;7.074;2022-11-21T02:14:38;36.78;;;29.40;;
6372;SDS011;3219;51.362;7.074;2022-11-21T02:17:07;34.38;;;26.88;;
6372;SDS011;3219;51.362;7.074;2022-11-21T02:19:37;37.05;;;28.17;;
6372;SDS011;3219;51.362;7.074;2022-11-21T02:22:10;36.78;;;28.20;;
6372;SDS011;3219;51.362;7.074;2022-11-21T02:24:42;36.20;;;28.17;;
6372;SDS011;3219;51.362;7.074;2022-11-21T02:27:12;36.30;;;27.17;;
6372;SDS011;3219;51.362;7.074;2022-11-21T02:29:41;36.83;;;28.15;;
6372;SDS011;3219;51.362;7.074;2022-11-21T02:32:18;33.67;;;27.33;;
6372;SDS011;3219;51.362;7.074;2022-11-21T02:34:46;37.13;;;28.77;;
6372;SDS011;3219;51.362;7.074;2022-11-21T02:37:14;35.35;;;27.73;;
6372;SDS011;3219;51.362;7.074;2022-11-21T02:39:43;39.45;;;28.70;;
6372;SDS011;3219;51.362;7.074;2022-11-21T02:42:15;36.65;;;27.92;;
6372;SDS011;3219;51.362;7.074;2022-11-21T02:44:45;38.58;;;28.75;;
6372;SDS011;3219;51.362;7.074;2022-11-21T02:47:15;36.50;;;28.83;;
6372;SDS011;3219;51.362;7.074;2022-11-21T02:49:44;39.35;;;29.05;;
6372;SDS011;3219;51.362;7.074;2022-11-21T02:52:15;39.13;;;30.05;;
6372;SDS011;3219;51.362;7.074;2022-11-21T02:54:43;41.10;;;29.50;;
6372;SDS011;3219;51.362;7.074;2022-11-21T02:57:11;41.40;;;30.52;;
6372;SDS011;3219;51.362;7.074;2022-11-21T02:59:40;39.22;;;29.27;;
6372;SDS011;3219;51.362;7.074;2022-11-21T03:02:08;38.10;;;29.98;;
6372;SDS011;3219;51.362;7.074;2022-11-21T03:04:36;40.55;;;29.50;;
6372;SDS011;3219;51.362;7.074;2022-11-21T03:07:04;40.65;;;28.23;;
6372;SDS011;3219;51.362;7.074;2022-11-21T03:09:33;46.80;;;32.28;;
6372;SDS011;3219;51.362;7.074;2022-11-21T03:12:04;43.30;;;31.02;;
6372;SDS011;3219;51.362;7.074;2022-11-21T03:14:32;41.97;;;30.58;;
6372;SDS011;3219;51.362;7.074;2022-11-21T03:17:01;47.70;;;32.30;;
6372;SDS011;3219;51.362;7.074;2022-11-21T03:19:29;46.47;;;32.05;;
6372;SDS011;3219;51.362;7.074;2022-11-21T03:21:57;40.00;;;29.55;;
6372;SDS011;3219;51.362;7.074;2022-11-21T03:24:25;42.35;;;30.45;;
6372;SDS011;3219;51.362;7.074;2022-11-21T03:26:53;40.28;;;29.42;;
6372;SDS011;3219;51.362;7.074;2022-11-21T03:29:21;40.15;;;30.05;;
6372;SDS011;3219;51.362;7.074;2022-11-21T03:31:49;37.83;;;27.83;;
6372;SDS011;3219;51.362;7.074;2022-11-21T03:34:19;36.72;;;27.25;;
6372;SDS011;3219;51.362;7.074;2022-11-21T03:36:46;36.28;;;27.35;;
6372;SDS011;3219;51.362;7.074;2022-11-21T03:39:14;38.83;;;28.05;;
6372;SDS011;3219;51.362;7.074;2022-11-21T03:41:42;38.38;;;29.00;;
6372;SDS011;3219;51.362;7.074;2022-11-21T03:44:10;41.97;;;30.90;;
6372;SDS011;3219;51.362;7.074;2022-11-21T03:46:39;41.75;;;30.45;;
6372;SDS011;3219;51.362;7.074;2022-11-21T03:49:08;34.10;;;26.70;;
6372;SDS011;3219;51.362;7.074;2022-11-21T03:51:37;34.45;;;23.58;;
6372;SDS011;3219;51.362;7.074;2022-11-21T03:54:05;26.95;;;19.67;;
6372;SDS011;3219;51.362;7.074;2022-11-21T03:56:33;26.02;;;18.98;;
6372;SDS011;3219;51.362;7.074;2022-11-21T03:59:01;27.00;;;19.42;;
6372;SDS011;3219;51.362;7.074;2022-11-21T04:01:29;20.33;;;16.58;;
6372;SDS011;3219;51.362;7.074;2022-11-21T04:03:57;21.15;;;16.48;;
6372;SDS011;3219;51.362;7.074;2022-11-21T04:06:25;20.27;;;15.40;;
6372;SDS011;3219;51.362;7.074;2022-11-21T04:08:56;20.23;;;16.42;;
6372;SDS011;3219;51.362;7.074;2022-11-21T04:11:24;25.33;;;18.95;;
6372;SDS011;3219;51.362;7.074;2022-11-21T04:13:52;31.60;;;22.15;;
6372;SDS011;3219;51.362;7.074;2022-11-21T04:16:20;29.15;;;20.30;;
6372;SDS011;3219;51.362;7.074;2022-11-21T04:18:48;28.13;;;19.75;;
6372;SDS011;3219;51.362;7.074;2022-11-21T04:21:15;27.23;;;19.60;;
6372;SDS011;3219;51.362;7.074;2022-11-21T04:23:43;29.20;;;19.02;;
6372;SDS011;3219;51.362;7.074;2022-11-21T04:26:13;27.23;;;18.88;;
6372;SDS011;3219;51.362;7.074;2022-11-21T04:28:41;28.13;;;18.73;;
6372;SDS011;3219;51.362;7.074;2022-11-21T04:31:08;31.88;;;20.08;;
6372;SDS011;3219;51.362;7.074;2022-11-21T04:33:37;29.48;;;19.17;;
6372;SDS011;3219;51.362;7.074;2022-11-21T04:36:05;31.80;;;21.05;;
6372;SDS011;3219;51.362;7.074;2022-11-21T04:38:33;33.97;;;19.02;;
6372;SDS011;3219;51.362;7.074;2022-11-21T04:41:01;35.90;;;20.17;;
6372;SDS011;3219;51.362;7.074;2022-11-21T04:43:30;45.42;;;24.10;;
6372;SDS011;3219;51.362;7.074;2022-11-21T04:45:58;45.22;;;25.55;;
6372;SDS011;3219;51.362;7.074;2022-11-21T04:48:26;54.45;;;28.58;;
6372;SDS011;3219;51.362;7.074;2022-11-21T04:50:54;54.60;;;26.80;;
6372;SDS011;3219;51.362;7.074;2022-11-21T04:53:22;56.67;;;29.75;;
6372;SDS011;3219;51.362;7.074;2022-11-21T04:55:50;60.15;;;31.92;;
6372;SDS011;3219;51.362;7.074;2022-11-21T04:58:18;64.38;;;30.83;;
6372;SDS011;3219;51.362;7.074;2022-11-21T05:00:47;54.65;;;31.75;;
6372;SDS011;3219;51.362;7.074;2022-11-21T05:03:15;62.33;;;32.05;;
6372;SDS011;3219;51.362;7.074;2022-11-21T05:05:43;62.70;;;33.58;;
6372;SDS011;3219;51.362;7.074;2022-11-21T05:08:11;74.07;;;35.63;;
6372;SDS011;3219;51.362;7.074;2022-11-21T05:10:39;67.00;;;34.88;;
6372;SDS011;3219;51.362;7.074;2022-11-21T05:13:24;70.15;;;36.45;;
6372;SDS011;3219;51.362;7.074;2022-11-21T05:15:56;70.63;;;35.60;;
6372;SDS011;3219;51.362;7.074;2022-11-21T05:18:24;77.43;;;38.55;;
6372;SDS011;3219;51.362;7.074;2022-11-21T05:20:52;74.80;;;37.97;;
6372;SDS011;3219;51.362;7.074;2022-11-21T05:23:20;69.88;;;37.90;;
6372;SDS011;3219;51.362;7.074;2022-11-21T05:25:47;67.38;;;35.92;;
6372;SDS011;3219;51.362;7.074;2022-11-21T05:28:15;73.07;;;36.70;;
6372;SDS011;3219;51.362;7.074;2022-11-21T05:30:43;63.88;;;34.30;;
6372;SDS011;3219;51.362;7.074;2022-11-21T05:33:12;67.32;;;36.60;;
6372;SDS011;3219;51.362;7.074;2022-11-21T05:35:40;65.30;;;35.45;;
6372;SDS011;3219;51.362;7.074;2022-11-21T05:38:08;62.42;;;34.10;;
6372;SDS011;3219;51.362;7.074;2022-11-21T05:40:36;56.20;;;32.15;;
6372;SDS011;3219;51.362;7.074;2022-11-21T05:43:04;60.83;;;33.20;;
6372;SDS011;3219;51.362;7.074;2022-11-21T05:45:50;62.88;;;33.42;;
6372;SDS011;3219;51.362;7.074;2022-11-21T05:48:19;56.97;;;31.92;;
6372;SDS011;3219;51.362;7.074;2022-11-21T05:50:47;55.28;;;31.20;;
6372;SDS011;3219;51.362;7.074;2022-11-21T05:53:16;59.92;;;33.45;;
6372;SDS011;3219;51.362;7.074;2022-11-21T05:55:44;55.05;;;33.55;;
6372;SDS011;3219;51.362;7.074;2022-11-21T05:58:12;65.43;;;36.80;;
6372;SDS011;3219;51.362;7.074;2022-11-21T06:00:40;60.10;;;36.42;;
6372;SDS011;3219;51.362;7.074;2022-11-21T06:03:08;59.33;;;32.95;;
6372;SDS011;3219;51.362;7.074;2022-11-21T06:05:52;55.35;;;32.50;;
6372;SDS011;3219;51.362;7.074;2022-11-21T06:08:20;50.72;;;31.55;;
6372;SDS011;3219;51.362;7.074;2022-11-21T06:10:48;46.30;;;29.35;;
6372;SDS011;3219;51.362;7.074;2022-11-21T06:13:16;48.25;;;30.35;;
6372;SDS011;3219;51.362;7.074;2022-11-21T06:15:48;48.42;;;29.65;;
6372;SDS011;3219;51.362;7.074;2022-11-21T06:18:16;53.13;;;30.88;;
6372;SDS011;3219;51.362;7.074;2022-11-21T06:20:44;54.13;;;30.30;;
6372;SDS011;3219;51.362;7.074;2022-11-21T06:23:13;47.85;;;28.40;;
6372;SDS011;3219;51.362;7.074;2022-11-21T06:25:41;46.40;;;27.55;;
6372;SDS011;3219;51.362;7.074;2022-11-21T06:28:09;58.50;;;31.40;;
6372;SDS011;3219;51.362;7.074;2022-11-21T06:30:38;58.15;;;32.35;;
6372;SDS011;3219;51.362;7.074;2022-11-21T06:33:06;54.38;;;31.65;;
6372;SDS011;3219;51.362;7.074;2022-11-21T06:35:35;59.40;;;33.40;;
6372;SDS011;3219;51.362;7.074;2022-11-21T06:38:04;55.72;;;31.83;;
6372;SDS011;3219;51.362;7.074;2022-11-21T06:40:34;52.95;;;30.75;;
6372;SDS011;3219;51.362;7.074;2022-11-21T06:43:02;52.67;;;31.33;;
6372;SDS011;3219;51.362;7.074;2022-11-21T06:45:30;53.67;;;30.42;;
6372;SDS011;3219;51.362;7.074;2022-11-21T06:47:59;53.42;;;31.02;;
6372;SDS011;3219;51.362;7.074;2022-11-21T06:50:28;55.20;;;31.33;;
6372;SDS011;3219;51.362;7.074;2022-11-21T06:52:56;56.38;;;31.95;;
6372;SDS011;3219;51.362;7.074;2022-11-21T06:55:24;52.85;;;29.35;;
6372;SDS011;3219;51.362;7.074;2022-11-21T06:57:56;53.92;;;30.88;;
6372;SDS011;3219;51.362;7.074;2022-11-21T07:00:24;53.72;;;30.38;;
6372;SDS011;3219;51.362;7.074;2022-11-21T07:02:53;48.83;;;28.35;;
6372;SDS011;3219;51.362;7.074;2022-11-21T07:05:21;50.22;;;28.65;;
6372;SDS011;3219;51.362;7.074;2022-11-21T07:07:49;46.70;;;28.83;;
6372;SDS011;3219;51.362;7.074;2022-11-21T07:10:17;48.28;;;29.33;;
6372;SDS011;3219;51.362;7.074;2022-11-21T07:12:45;47.47;;;29.20;;
6372;SDS011;3219;51.362;7.074;2022-11-21T07:15:32;47.83;;;29.17;;
6372;SDS011;3219;51.362;7.074;2022-11-21T07:18:00;49.53;;;29.65;;
6372;SDS011;3219;51.362;7.074;2022-11-21T07:20:28;46.22;;;28.60;;
6372;SDS011;3219;51.362;7.074;2022-11-21T07:22:56;54.90;;;30.85;;
6372;SDS011;3219;51.362;7.074;2022-11-21T07:25:25;57.33;;;32.08;;
6372;SDS011;3219;51.362;7.074;2022-11-21T07:27:53;55.88;;;32.60;;
6372;SDS011;3219;51.362;7.074;2022-11-21T07:30:21;58.50;;;33.75;;
6372;SDS011;3219;51.362;7.074;2022-11-21T07:32:54;62.22;;;34.35;;
6372;SDS011;3219;51.362;7.074;2022-11-21T07:35:22;66.78;;;34.22;;
6372;SDS011;3219;51.362;7.074;2022-11-21T07:37:50;68.45;;;36.05;;
6372;SDS011;3219;51.362;7.074;2022-11-21T07:40:18;68.68;;;36.22;;
6372;SDS011;3219;51.362;7.074;2022-11-21T07:42:46;67.00;;;35.92;;
6372;SDS011;3219;51.362;7.074;2022-11-21T07:45:15;77.97;;;40.25;;
6372;SDS011;3219;51.362;7.074;2022-11-21T07:47:43;72.47;;;38.50;;
6372;SDS011;3219;51.362;7.074;2022-11-21T07:50:12;69.70;;;37.35;;
6372;SDS011;3219;51.362;7.074;2022-11-21T07:52:40;74.65;;;39.35;;
6372;SDS011;3219;51.362;7.074;2022-11-21T07:55:08;70.15;;;37.85;;
6372;SDS011;3219;51.362;7.074;2022-11-21T07:57:36;83.07;;;41.45;;
6372;SDS011;3219;51.362;7.074;2022-11-21T08:00:05;72.25;;;38.72;;
6372;SDS011;3219;51.362;7.074;2022-11-21T08:02:33;75.95;;;38.78;;
6372;SDS011;3219;51.362;7.074;2022-11-21T08:05:01;74.32;;;39.95;;
6372;SDS011;3219;51.362;7.074;2022-11-21T08:07:30;74.47;;;39.85;;
6372;SDS011;3219;51.362;7.074;2022-11-21T08:09:58;79.72;;;41.13;;
6372;SDS011;3219;51.362;7.074;2022-11-21T08:12:26;83.28;;;42.15;;
6372;SDS011;3219;51.362;7.074;2022-11-21T08:14:54;81.18;;;41.75;;
6372;SDS011;3219;51.362;7.074;2022-11-21T08:17:22;78.75;;;39.22;;
6372;SDS011;3219;51.362;7.074;2022-11-21T08:19:52;75.43;;;41.88;;
6372;SDS011;3219;51.362;7.074;2022-11-21T08:24:50;76.10;;;41.08;;
6372;SDS011;3219;51.362;7.074;2022-11-21T08:27:18;74.95;;;39.60;;
6372;SDS011;3219;51.362;7.074;2022-11-21T08:29:48;70.95;;;38.42;;
6372;SDS011;3219;51.362;7.074;2022-11-21T08:32:16;67.07;;;37.35;;
6372;SDS011;3219;51.362;7.074;2022-11-21T08:34:44;68.03;;;37.80;;
6372;SDS011;3219;51.362;7.074;2022-11-21T08:37:12;55.45;;;33.70;;
6372;SDS011;3219;51.362;7.074;2022-11-21T08:39:40;49.83;;;33.00;;
6372;SDS011;3219;51.362;7.074;2022-11-21T08:42:10;51.33;;;32.58;;
6372;SDS011;3219;51.362;7.074;2022-11-21T08:44:37;51.00;;;32.80;;
6372;SDS011;3219;51.362;7.074;2022-11-21T08:47:05;60.65;;;34.75;;
6372;SDS011;3219;51.362;7.074;2022-11-21T08:49:33;46.47;;;31.00;;
6372;SDS011;3219;51.362;7.074;2022-11-21T08:52:01;52.60;;;32.33;;
6372;SDS011;3219;51.362;7.074;2022-11-21T08:54:29;55.08;;;33.53;;
6372;SDS011;3219;51.362;7.074;2022-11-21T08:56:57;50.45;;;31.80;;
6372;SDS011;3219;51.362;7.074;2022-11-21T08:59:26;50.00;;;31.42;;
6372;SDS011;3219;51.362;7.074;2022-11-21T09:01:54;49.97;;;30.70;;
6372;SDS011;3219;51.362;7.074;2022-11-21T09:04:22;50.65;;;31.83;;
6372;SDS011;3219;51.362;7.074;2022-11-21T09:06:50;48.13;;;31.92;;
6372;SDS011;3219;51.362;7.074;2022-11-21T09:09:18;53.58;;;32.38;;
6372;SDS011;3219;51.362;7.074;2022-11-21T09:11:46;45.78;;;31.77;;
6372;SDS011;3219;51.362;7.074;2022-11-21T09:14:14;47.45;;;30.63;;
6372;SDS011;3219;51.362;7.074;2022-11-21T09:17:01;56.33;;;33.20;;
6372;SDS011;3219;51.362;7.074;2022-11-21T09:19:46;46.17;;;31.02;;
6372;SDS011;3219;51.362;7.074;2022-11-21T09:22:14;48.45;;;32.03;;
6372;SDS011;3219;51.362;7.074;2022-11-21T09:24:42;50.40;;;30.77;;
6372;SDS011;3219;51.362;7.074;2022-11-21T09:27:10;50.38;;;33.22;;
6372;SDS011;3219;51.362;7.074;2022-11-21T09:29:38;50.70;;;31.40;;
6372;SDS011;3219;51.362;7.074;2022-11-21T09:32:07;42.08;;;28.48;;
6372;SDS011;3219;51.362;7.074;2022-11-21T09:34:35;44.50;;;30.95;;
6372;SDS011;3219;51.362;7.074;2022-11-21T09:37:03;38.72;;;27.80;;
6372;SDS011;3219;51.362;7.074;2022-11-21T09:39:31;43.85;;;27.40;;
6372;SDS011;3219;51.362;7.074;2022-11-21T09:42:02;36.72;;;26.33;;
6372;SDS011;3219;51.362;7.074;2022-11-21T09:47:22;38.40;;;24.63;;
6372;SDS011;3219;51.362;7.074;2022-11-21T09:49:54;31.97;;;22.57;;
6372;SDS011;3219;51.362;7.074;2022-11-21T09:52:25;34.20;;;23.70;;
6372;SDS011;3219;51.362;7.074;2022-11-21T09:54:56;30.73;;;22.25;;
6372;SDS011;3219;51.362;7.074;2022-11-21T09:57:24;34.13;;;22.77;;
6372;SDS011;3219;51.362;7.074;2022-11-21T09:59:53;30.45;;;22.33;;
6372;SDS011;3219;51.362;7.074;2022-11-21T10:02:22;35.95;;;23.45;;
6372;SDS011;3219;51.362;7.074;2022-11-21T10:04:51;27.52;;;21.27;;
6372;SDS011;3219;51.362;7.074;2022-11-21T10:07:25;31.92;;;22.05;;
6372;SDS011;3219;51.362;7.074;2022-11-21T10:10:02;32.53;;;22.85;;
6372;SDS011;3219;51.362;7.074;2022-11-21T10:12:31;31.05;;;23.13;;
6372;SDS011;3219;51.362;7.074;2022-11-21T10:15:07;30.85;;;23.63;;
6372;SDS011;3219;51.362;7.074;2022-11-21T10:17:44;33.80;;;24.40;;
6372;SDS011;3219;51.362;7.074;2022-11-21T10:20:21;27.05;;;21.45;;
6372;SDS011;3219;51.362;7.074;2022-11-21T10:22:56;25.38;;;20.40;;
6372;SDS011;3219;51.362;7.074;2022-11-21T10:25:28;28.40;;;23.27;;
6372;SDS011;3219;51.362;7.074;2022-11-21T10:27:57;28.67;;;21.70;;
6372;SDS011;3219;51.362;7.074;2022-11-21T10:30:29;28.25;;;21.80;;
6372;SDS011;3219;51.362;7.074;2022-11-21T10:33:00;29.27;;;21.00;;
6372;SDS011;3219;51.362;7.074;2022-11-21T10:35:30;46.75;;;22.70;;
6372;SDS011;3219;51.362;7.074;2022-11-21T10:38:02;27.58;;;18.42;;
6372;SDS011;3219;51.362;7.074;2022-11-21T10:40:34;25.10;;;19.45;;
6372;SDS011;3219;51.362;7.074;2022-11-21T10:43:03;21.30;;;16.75;;
6372;SDS011;3219;51.362;7.074;2022-11-21T10:45:47;26.67;;;17.55;;
6372;SDS011;3219;51.362;7.074;2022-11-21T10:48:16;28.08;;;18.80;;
6372;SDS011;3219;51.362;7.074;2022-11-21T10:50:48;28.98;;;18.48;;
6372;SDS011;3219;51.362;7.074;2022-11-21T10:53:17;28.95;;;20.23;;
6372;SDS011;3219;51.362;7.074;2022-11-21T10:56:04;33.20;;;21.67;;
6372;SDS011;3219;51.362;7.074;2022-11-21T10:58:34;31.75;;;22.05;;
6372;SDS011;3219;51.362;7.074;2022-11-21T11:01:02;29.45;;;21.65;;
6372;SDS011;3219;51.362;7.074;2022-11-21T11:03:31;29.63;;;20.17;;
6372;SDS011;3219;51.362;7.074;2022-11-21T11:05:59;25.80;;;19.35;;
6372;SDS011;3219;51.362;7.074;2022-11-21T11:08:27;22.38;;;17.08;;
6372;SDS011;3219;51.362;7.074;2022-11-21T11:11:00;27.05;;;19.55;;
6372;SDS011;3219;51.362;7.074;2022-11-21T11:13:28;22.48;;;17.60;;
6372;SDS011;3219;51.362;7.074;2022-11-21T11:16:02;25.67;;;17.42;;
6372;SDS011;3219;51.362;7.074;2022-11-21T11:18:32;29.85;;;18.65;;
6372;SDS011;3219;51.362;7.074;2022-11-21T11:23:51;22.45;;;16.85;;
6372;SDS011;3219;51.362;7.074;2022-11-21T11:26:21;24.92;;;16.27;;
6372;SDS011;3219;51.362;7.074;2022-11-21T11:28:49;25.17;;;18.08;;
6372;SDS011;3219;51.362;7.074;2022-11-21T11:31:18;22.02;;;15.63;;
6372;SDS011;3219;51.362;7.074;2022-11-21T11:33:51;28.38;;;15.40;;
6372;SDS011;3219;51.362;7.074;2022-11-21T11:36:30;30.33;;;15.77;;
6372;SDS011;3219;51.362;7.074;2022-11-21T11:39:02;21.23;;;14.18;;
6372;SDS011;3219;51.362;7.074;2022-11-21T11:41:38;22.65;;;14.85;;
6372;SDS011;3219;51.362;7.074;2022-11-21T11:44:24;22.98;;;15.18;;
6372;SDS011;3219;51.362;7.074;2022-11-21T11:47:12;19.55;;;13.52;;
6372;SDS011;3219;51.362;7.074;2022-11-21T11:50:00;21.17;;;14.45;;
6372;SDS011;3219;51.362;7.074;2022-11-21T11:52:42;19.90;;;14.02;;
6372;SDS011;3219;51.362;7.074;2022-11-21T11:57:38;17.48;;;14.05;;
6372;SDS011;3219;51.362;7.074;2022-11-21T12:00:14;20.63;;;13.65;;
6372;SDS011;3219;51.362;7.074;2022-11-21T12:02:46;18.90;;;13.48;;
6372;SDS011;3219;51.362;7.074;2022-11-21T12:05:18;20.80;;;14.30;;
6372;SDS011;3219;51.362;7.074;2022-11-21T12:07:49;19.23;;;13.68;;
6372;SDS011;3219;51.362;7.074;2022-11-21T12:10:19;19.45;;;13.40;;
6372;SDS011;3219;51.362;7.074;2022-11-21T12:12:51;17.65;;;12.75;;
6372;SDS011;3219;51.362;7.074;2022-11-21T12:15:22;14.88;;;11.30;;
6372;SDS011;3219;51.362;7.074;2022-11-21T12:18:12;16.48;;;11.68;;
6372;SDS011;3219;51.362;7.074;2022-11-21T12:20:47;19.38;;;11.07;;
6372;SDS011;3219;51.362;7.074;2022-11-21T12:23:17;13.48;;;10.15;;
6372;SDS011;3219;51.362;7.074;2022-11-21T12:25:49;18.30;;;10.80;;
6372;SDS011;3219;51.362;7.074;2022-11-21T12:28:22;18.60;;;10.65;;
6372;SDS011;3219;51.362;7.074;2022-11-21T12:30:54;19.08;;;10.43;;
6372;SDS011;3219;51.362;7.074;2022-11-21T12:33:27;17.73;;;9.98;;
6372;SDS011;3219;51.362;7.074;2022-11-21T12:36:01;13.52;;;9.38;;
6372;SDS011;3219;51.362;7.074;2022-11-21T12:38:38;16.30;;;9.55;;
6372;SDS011;3219;51.362;7.074;2022-11-21T12:41:13;17.98;;;10.82;;
6372;SDS011;3219;51.362;7.074;2022-11-21T12:44:02;17.17;;;11.00;;
6372;SDS011;3219;51.362;7.074;2022-11-21T12:46:35;15.85;;;11.10;;
6372;SDS011;3219;51.362;7.074;2022-11-21T12:49:06;20.38;;;12.93;;
6372;SDS011;3219;51.362;7.074;2022-11-21T12:51:59;17.50;;;11.43;;
6372;SDS011;3219;51.362;7.074;2022-11-21T12:54:52;19.42;;;12.93;;
6372;SDS011;3219;51.362;7.074;2022-11-21T12:57:25;17.90;;;11.45;;
6372;SDS011;3219;51.362;7.074;2022-11-21T12:59:57;16.85;;;12.02;;
6372;SDS011;3219;51.362;7.074;2022-11-21T13:04:55;17.33;;;12.35;;
6372;SDS011;3219;51.362;7.074;2022-11-21T13:07:26;20.13;;;12.23;;
6372;SDS011;3219;51.362;7.074;2022-11-21T13:09:55;23.10;;;12.15;;
6372;SDS011;3219;51.362;7.074;2022-11-21T13:12:25;19.23;;;12.40;;
6372;SDS011;3219;51.362;7.074;2022-11-21T13:14:56;17.97;;;12.27;;
6372;SDS011;3219;51.362;7.074;2022-11-21T13:17:34;16.33;;;11.48;;
6372;SDS011;3219;51.362;7.074;2022-11-21T13:20:04;16.00;;;11.50;;
6372;SDS011;3219;51.362;7.074;2022-11-21T13:25:37;17.75;;;11.15;;
6372;SDS011;3219;51.362;7.074;2022-11-21T13:30:52;11.60;;;9.43;;
6372;SDS011;3219;51.362;7.074;2022-11-21T13:36:09;15.65;;;10.60;;
6372;SDS011;3219;51.362;7.074;2022-11-21T13:44:37;12.95;;;8.27;;
6372;SDS011;3219;51.362;7.074;2022-11-21T13:47:09;15.30;;;7.68;;
6372;SDS011;3219;51.362;7.074;2022-11-21T13:49:38;15.45;;;7.57;;
6372;SDS011;3219;51.362;7.074;2022-11-21T13:52:11;9.75;;;7.40;;
6372;SDS011;3219;51.362;7.074;2022-11-21T13:57:37;13.20;;;6.13;;
6372;SDS011;3219;51.362;7.074;2022-11-21T14:00:14;12.98;;;6.53;;
6372;SDS011;3219;51.362;7.074;2022-11-21T14:02:59;7.55;;;5.35;;
6372;SDS011;3219;51.362;7.074;2022-11-21T14:05:34;13.80;;;5.88;;
6372;SDS011;3219;51.362;7.074;2022-11-21T14:08:13;9.48;;;4.63;;
6372;SDS011;3219;51.362;7.074;2022-11-21T14:10:43;8.20;;;5.22;;
6372;SDS011;3219;51.362;7.074;2022-11-21T14:13:16;6.90;;;4.72;;
6372;SDS011;3219;51.362;7.074;2022-11-21T14:15:51;9.27;;;4.82;;
6372;SDS011;3219;51.362;7.074;2022-11-21T14:18:24;7.82;;;4.63;;
6372;SDS011;3219;51.362;7.074;2022-11-21T14:20:53;7.47;;;4.65;;
6372;SDS011;3219;51.362;7.074;2022-11-21T14:23:22;7.70;;;4.55;;
6372;SDS011;3219;51.362;7.074;2022-11-21T14:25:52;9.25;;;3.90;;
6372;SDS011;3219;51.362;7.074;2022-11-21T14:28:22;8.25;;;3.97;;
6372;SDS011;3219;51.362;7.074;2022-11-21T14:30:56;4.70;;;3.17;;
6372;SDS011;3219;51.362;7.074;2022-11-21T14:33:25;9.18;;;3.53;;
6372;SDS011;3219;51.362;7.074;2022-11-21T14:35:54;9.20;;;3.67;;
6372;SDS011;3219;51.362;7.074;2022-11-21T14:38:23;7.03;;;3.53;;
6372;SDS011;3219;51.362;7.074;2022-11-21T14:43:34;6.00;;;2.78;;
6372;SDS011;3219;51.362;7.074;2022-11-21T14:46:11;6.63;;;2.85;;
6372;SDS011;3219;51.362;7.074;2022-11-21T14:48:39;8.70;;;2.78;;
6372;SDS011;3219;51.362;7.074;2022-11-21T14:51:07;7.18;;;3.10;;
6372;SDS011;3219;51.362;7.074;2022-11-21T14:53:38;10.52;;;2.97;;
6372;SDS011;3219;51.362;7.074;2022-11-21T14:56:07;6.38;;;2.70;;
6372;SDS011;3219;51.362;7.074;2022-11-21T14:58:35;7.75;;;3.45;;
6372;SDS011;3219;51.362;7.074;2022-11-21T15:01:05;7.72;;;3.58;;
6372;SDS011;3219;51.362;7.074;2022-11-21T15:03:34;5.85;;;3.42;;
6372;SDS011;3219;51.362;7.074;2022-11-21T15:06:02;6.43;;;3.10;;
6372;SDS011;3219;51.362;7.074;2022-11-21T15:08:31;9.77;;;3.35;;
6372;SDS011;3219;51.362;7.074;2022-11-21T15:10:59;4.88;;;3.00;;
6372;SDS011;3219;51.362;7.074;2022-11-21T15:13:29;4.75;;;2.50;;
6372;SDS011;3219;51.362;7.074;2022-11-21T15:16:00;6.68;;;2.90;;
6372;SDS011;3219;51.362;7.074;2022-11-21T15:18:30;5.28;;;2.78;;
6372;SDS011;3219;51.362;7.074;2022-11-21T15:20:59;6.22;;;2.40;;
6372;SDS011;3219;51.362;7.074;2022-11-21T15:23:28;5.85;;;2.67;;
6372;SDS011;3219;51.362;7.074;2022-11-21T15:25:56;3.70;;;2.10;;
6372;SDS011;3219;51.362;7.074;2022-11-21T15:28:25;9.48;;;2.67;;
6372;SDS011;3219;51.362;7.074;2022-11-21T15:33:59;6.88;;;2.10;;
6372;SDS011;3219;51.362;7.074;2022-11-21T15:36:28;4.43;;;2.22;;
6372;SDS011;3219;51.362;7.074;2022-11-21T15:39:00;4.50;;;1.90;;
6372;SDS011;3219;51.362;7.074;2022-11-21T15:41:29;6.57;;;2.13;;
6372;SDS011;3219;51.362;7.074;2022-11-21T15:46:44;3.60;;;2.10;;
6372;SDS011;3219;51.362;7.074;2022-11-21T15:49:13;5.43;;;2.20;;